Time;durP1;ratioP1;P1;durP2;ratioP2;P2;SDS_P1;SDS_P2;PMS_P1;PMS_P2;Temp;Humidity;BMP_temperature;BMP_pressure;BME280_temperature;BME280_humidity;BME280_pressure;Samples;Min_cycle;Max_cycle;Signal;HPM_P1;HPM_P2
2021/08/29 00:02:06;;;;;;;3.27;2.83;;;10.60;99.90;;;;;;5077174;28;20174;-85
2021/08/29 00:04:32;;;;;;;3.50;2.67;;;10.70;99.90;;;;;;5076646;28;20698;-86
2021/08/29 00:06:58;;;;;;;4.50;2.70;;;10.70;99.90;;;;;;5076858;28;20182;-85
2021/08/29 00:09:23;;;;;;;2.77;2.53;;;10.60;99.90;;;;;;5076681;28;20261;-85
2021/08/29 00:11:49;;;;;;;3.47;3.00;;;10.60;99.90;;;;;;5076402;28;20654;-85
2021/08/29 00:14:15;;;;;;;3.37;3.07;;;10.60;99.90;;;;;;5076175;28;20510;-85
2021/08/29 00:16:41;;;;;;;3.50;3.03;;;10.60;99.90;;;;;;5075989;28;20190;-85
2021/08/29 00:19:06;;;;;;;3.60;3.10;;;10.60;99.90;;;;;;5075798;28;20215;-85
2021/08/29 00:21:32;;;;;;;2.73;2.53;;;10.60;99.90;;;;;;5082514;28;20177;-85
2021/08/29 00:23:58;;;;;;;3.57;3.27;;;10.60;99.90;;;;;;5087232;28;20174;-85
2021/08/29 00:26:24;;;;;;;3.03;2.80;;;10.60;99.90;;;;;;5087935;28;20177;-85
2021/08/29 00:28:50;;;;;;;3.43;2.87;;;10.60;99.90;;;;;;5089999;28;20203;-85
2021/08/29 00:31:16;;;;;;;3.63;3.30;;;10.60;99.90;;;;;;5080509;28;20197;-85
2021/08/29 00:33:42;;;;;;;3.73;2.80;;;10.60;99.90;;;;;;5076797;28;20177;-86
2021/08/29 00:36:08;;;;;;;4.07;3.00;;;10.60;99.90;;;;;;5076977;28;20187;-85
2021/08/29 00:38:33;;;;;;;3.77;3.10;;;10.60;99.90;;;;;;5076163;28;20205;-85
2021/08/29 00:40:59;;;;;;;3.83;3.33;;;10.60;99.90;;;;;;5077007;28;20207;-85
2021/08/29 00:43:25;;;;;;;4.77;3.17;;;10.60;99.90;;;;;;5075725;28;20535;-85
2021/08/29 00:45:51;;;;;;;3.43;2.70;;;10.60;99.90;;;;;;5077729;28;20223;-85
2021/08/29 00:48:17;;;;;;;3.40;3.10;;;10.60;99.90;;;;;;5089437;28;20275;-86
2021/08/29 00:50:47;;;;;;;3.53;3.20;;;10.60;99.90;;;;;;5077774;28;20221;-85
2021/08/29 00:53:17;;;;;;;3.03;2.80;;;10.60;99.90;;;;;;5077798;28;20173;-86
2021/08/29 00:55:44;;;;;;;3.63;3.03;;;10.60;99.90;;;;;;5079639;28;20170;-85
2021/08/29 00:58:10;;;;;;;3.80;3.30;;;10.60;99.90;;;;;;5077249;28;20208;-85
2021/08/29 01:00:44;;;;;;;3.50;3.20;;;10.60;99.90;;;;;;5078768;28;20188;-85
2021/08/29 01:03:20;;;;;;;3.40;3.10;;;10.60;99.90;;;;;;5078359;28;20181;-86
2021/08/29 01:06:00;;;;;;;4.00;3.60;;;10.60;99.90;;;;;;5080345;28;20209;-86
2021/08/29 01:08:30;;;;;;;3.47;3.17;;;10.50;99.90;;;;;;5078495;28;20244;-85
2021/08/29 01:11:23;;;;;;;3.63;3.30;;;10.60;99.90;;;;;;5077748;28;20260;-85
2021/08/29 01:13:52;;;;;;;4.47;3.40;;;10.50;99.90;;;;;;5079429;28;20219;-85
2021/08/29 01:16:20;;;;;;;3.27;2.97;;;10.50;99.90;;;;;;5079809;28;20658;-85
2021/08/29 01:18:51;;;;;;;3.57;3.27;;;10.50;99.90;;;;;;5083636;28;20610;-85
2021/08/29 01:21:26;;;;;;;3.80;3.40;;;10.50;99.90;;;;;;5079184;28;20493;-85
2021/08/29 01:24:02;;;;;;;3.77;3.20;;;10.50;99.90;;;;;;5077944;28;20165;-85
2021/08/29 01:26:34;;;;;;;4.00;3.60;;;10.60;99.90;;;;;;5077788;28;20171;-85
2021/08/29 01:29:05;;;;;;;3.30;3.00;;;10.60;99.90;;;;;;5079507;28;20275;-85
2021/08/29 01:31:34;;;;;;;3.27;2.80;;;10.60;99.90;;;;;;5080073;28;20175;-85
2021/08/29 01:34:02;;;;;;;3.60;3.30;;;10.60;99.90;;;;;;5078328;28;20219;-85
2021/08/29 01:36:32;;;;;;;3.60;3.23;;;10.60;99.90;;;;;;5079586;28;20176;-85
2021/08/29 01:38:58;;;;;;;5.57;3.40;;;10.60;99.90;;;;;;5078675;28;20204;-85
2021/08/29 01:41:25;;;;;;;3.33;2.77;;;10.50;99.90;;;;;;5077501;28;20173;-85
2021/08/29 01:43:51;;;;;;;4.03;3.33;;;10.60;99.90;;;;;;5076813;28;20183;-85
2021/08/29 01:46:18;;;;;;;3.73;2.93;;;10.60;99.90;;;;;;5078980;28;20179;-85
2021/08/29 01:48:45;;;;;;;4.87;3.50;;;10.60;99.90;;;;;;5077094;28;20220;-85
2021/08/29 01:51:11;;;;;;;3.67;3.30;;;10.70;99.90;;;;;;5077018;28;20186;-85
2021/08/29 01:53:39;;;;;;;3.53;3.20;;;10.60;99.90;;;;;;5075993;28;20183;-85
2021/08/29 01:56:06;;;;;;;5.97;3.37;;;10.60;99.90;;;;;;5076811;28;20235;-85
2021/08/29 01:58:32;;;;;;;5.27;2.93;;;10.70;99.90;;;;;;5077905;28;20252;-85
2021/08/29 02:01:00;;;;;;;2.90;2.60;;;10.60;99.90;;;;;;5077888;28;20255;-85
2021/08/29 02:03:28;;;;;;;3.60;3.30;;;10.60;99.90;;;;;;5077635;28;20169;-85
2021/08/29 02:05:59;;;;;;;3.83;2.70;;;10.60;99.90;;;;;;5077796;28;20179;-85
2021/08/29 02:08:26;;;;;;;4.10;3.10;;;10.70;99.90;;;;;;5076137;28;20211;-85
2021/08/29 02:10:54;;;;;;;2.60;2.40;;;10.60;99.90;;;;;;5078000;28;20634;-85
2021/08/29 02:13:25;;;;;;;3.07;2.80;;;10.70;99.90;;;;;;5077738;28;20180;-85
2021/08/29 02:16:13;;;;;;;2.87;2.53;;;10.60;99.90;;;;;;5077711;28;20169;-85
2021/08/29 02:18:42;;;;;;;3.37;3.07;;;10.60;99.90;;;;;;5076510;28;20201;-85
2021/08/29 02:21:09;;;;;;;3.57;2.90;;;10.60;99.90;;;;;;5075824;28;20173;-85
2021/08/29 02:23:36;;;;;;;3.10;2.80;;;10.70;99.90;;;;;;5076732;28;20182;-85
2021/08/29 02:26:02;;;;;;;3.13;2.80;;;10.60;99.90;;;;;;5075599;28;20200;-85
2021/08/29 02:28:28;;;;;;;3.40;2.90;;;10.60;99.90;;;;;;5075647;28;20204;-85
2021/08/29 02:30:55;;;;;;;3.27;2.97;;;10.60;99.90;;;;;;5076502;28;20168;-85
2021/08/29 02:33:23;;;;;;;5.93;3.03;;;10.60;99.90;;;;;;5075244;28;20637;-85
2021/08/29 02:35:50;;;;;;;3.40;3.10;;;10.60;99.90;;;;;;5075285;28;20249;-85
2021/08/29 02:38:18;;;;;;;3.77;2.60;;;10.60;99.90;;;;;;5076027;28;20248;-85
2021/08/29 02:40:45;;;;;;;3.67;2.70;;;10.70;99.90;;;;;;5076124;28;20177;-85
2021/08/29 02:43:12;;;;;;;2.67;2.20;;;10.60;99.90;;;;;;5074633;28;20643;-85
2021/08/29 02:45:40;;;;;;;3.73;2.80;;;10.60;99.90;;;;;;5074578;28;20652;-85
2021/08/29 02:48:06;;;;;;;3.70;2.83;;;10.60;99.90;;;;;;5073844;28;20226;-85
2021/08/29 02:50:33;;;;;;;3.20;2.90;;;10.70;99.90;;;;;;5074215;28;20169;-85
2021/08/29 02:52:59;;;;;;;3.10;2.80;;;10.70;99.90;;;;;;5073843;28;20169;-85
2021/08/29 02:55:26;;;;;;;2.47;2.20;;;10.60;99.90;;;;;;5073931;28;20227;-85
2021/08/29 02:58:01;;;;;;;3.33;3.00;;;10.60;99.90;;;;;;5073569;28;20674;-85
2021/08/29 03:00:28;;;;;;;3.47;3.00;;;10.60;99.90;;;;;;5073760;28;20161;-85
2021/08/29 03:02:55;;;;;;;3.63;2.63;;;10.60;99.90;;;;;;5073528;28;20623;-85
2021/08/29 03:05:21;;;;;;;3.50;2.80;;;10.60;99.90;;;;;;5074390;28;20171;-85
2021/08/29 03:07:47;;;;;;;6.47;2.93;;;10.60;99.90;;;;;;5077251;28;20537;-84
2021/08/29 03:10:13;;;;;;;3.73;3.07;;;10.60;99.90;;;;;;5086155;28;20173;-84
2021/08/29 03:12:40;;;;;;;3.10;2.80;;;10.70;99.90;;;;;;5090154;28;20689;-84
2021/08/29 03:15:06;;;;;;;3.33;3.00;;;10.70;99.90;;;;;;5093950;28;20222;-84
2021/08/29 03:17:32;;;;;;;4.27;3.40;;;10.70;99.90;;;;;;5094563;28;20189;-84
2021/08/29 03:20:00;;;;;;;3.77;3.13;;;10.60;99.90;;;;;;5078717;28;20252;-85
2021/08/29 03:22:26;;;;;;;3.47;2.90;;;10.70;99.90;;;;;;5080102;28;20263;-84
2021/08/29 03:24:52;;;;;;;4.70;3.43;;;10.70;99.90;;;;;;5078046;28;20625;-85
2021/08/29 03:27:19;;;;;;;3.20;2.70;;;10.70;99.90;;;;;;5074680;28;20177;-85
2021/08/29 03:29:44;;;;;;;3.77;3.23;;;10.60;99.90;;;;;;5076731;28;20187;-85
2021/08/29 03:32:10;;;;;;;4.17;3.33;;;10.60;99.90;;;;;;5075486;28;20216;-85
2021/08/29 03:34:36;;;;;;;3.17;2.87;;;10.60;99.90;;;;;;5077333;28;20181;-85
2021/08/29 03:37:03;;;;;;;4.00;3.20;;;10.60;99.90;;;;;;5081764;28;20188;-85
2021/08/29 03:39:30;;;;;;;3.10;2.80;;;10.60;99.90;;;;;;5074591;28;20223;-85
2021/08/29 03:41:58;;;;;;;3.13;2.80;;;10.60;99.90;;;;;;5075042;28;20514;-85
2021/08/29 03:44:25;;;;;;;3.37;3.07;;;10.70;99.90;;;;;;5075833;28;20196;-85
2021/08/29 03:46:52;;;;;;;3.40;3.00;;;10.70;99.90;;;;;;5076668;28;20203;-85
2021/08/29 03:49:18;;;;;;;3.07;2.77;;;10.60;99.90;;;;;;5077103;28;20206;-84
2021/08/29 03:51:45;;;;;;;3.90;2.90;;;10.60;99.90;;;;;;5078211;28;20186;-85
2021/08/29 03:54:13;;;;;;;3.53;2.90;;;10.60;99.90;;;;;;5079426;28;20177;-85
2021/08/29 03:56:40;;;;;;;5.53;3.23;;;10.60;99.90;;;;;;5077643;28;20208;-85
2021/08/29 03:59:06;;;;;;;3.57;3.13;;;10.60;99.90;;;;;;5079532;28;20204;-84
2021/08/29 04:01:32;;;;;;;3.73;2.77;;;10.60;99.90;;;;;;5077974;28;20177;-85
2021/08/29 04:03:58;;;;;;;4.50;2.87;;;10.70;99.90;;;;;;5077945;28;20641;-85
2021/08/29 04:06:26;;;;;;;3.10;2.80;;;10.60;99.90;;;;;;5079031;28;20256;-85
2021/08/29 04:08:55;;;;;;;3.23;2.90;;;10.60;99.90;;;;;;5078018;28;20204;-85
2021/08/29 04:11:42;;;;;;;3.63;2.80;;;10.60;99.90;;;;;;5078286;28;20192;-85
2021/08/29 04:14:11;;;;;;;2.70;2.50;;;10.60;99.90;;;;;;5079705;28;20160;-85
2021/08/29 04:16:39;;;;;;;3.63;2.60;;;10.60;99.90;;;;;;5077930;28;20250;-85
2021/08/29 04:19:05;;;;;;;3.73;3.20;;;10.60;99.90;;;;;;5078326;28;20301;-84
2021/08/29 04:21:32;;;;;;;3.20;2.83;;;10.60;99.90;;;;;;5077802;28;20183;-85
2021/08/29 04:23:58;;;;;;;4.30;3.47;;;10.60;99.90;;;;;;5078013;28;20184;-85
2021/08/29 04:26:24;;;;;;;4.10;2.93;;;10.60;99.90;;;;;;5078448;28;20226;-85
2021/08/29 04:28:50;;;;;;;3.20;2.90;;;10.60;99.90;;;;;;5077644;28;20205;-85
2021/08/29 04:31:23;;;;;;;3.67;3.33;;;10.60;99.90;;;;;;5077667;28;20209;-85
2021/08/29 04:33:49;;;;;;;3.30;3.00;;;10.60;99.90;;;;;;5078934;28;20157;-85
2021/08/29 04:36:14;;;;;;;3.63;2.90;;;10.60;99.90;;;;;;5079264;28;20230;-85
2021/08/29 04:38:40;;;;;;;3.27;2.83;;;10.60;99.90;;;;;;5077949;28;20212;-84
2021/08/29 04:41:06;;;;;;;3.60;2.83;;;10.60;99.90;;;;;;5079213;28;20193;-85
2021/08/29 04:43:31;;;;;;;3.77;2.30;;;10.60;99.90;;;;;;5076400;28;20177;-85
2021/08/29 04:45:57;;;;;;;3.57;3.03;;;10.60;99.90;;;;;;5079628;28;20204;-85
2021/08/29 04:48:23;;;;;;;3.97;3.27;;;10.60;99.90;;;;;;5081714;28;20316;-85
2021/08/29 04:50:49;;;;;;;3.37;3.07;;;10.60;99.90;;;;;;5080488;28;20276;-85
2021/08/29 04:53:15;;;;;;;3.20;2.90;;;10.60;99.90;;;;;;5078724;28;20181;-85
2021/08/29 04:55:41;;;;;;;3.53;3.23;;;10.60;99.90;;;;;;5078844;28;20571;-85
2021/08/29 04:58:07;;;;;;;3.40;3.10;;;10.60;99.90;;;;;;5077227;28;20671;-85
2021/08/29 05:00:32;;;;;;;4.10;3.00;;;10.60;99.90;;;;;;5076630;28;20264;-85
2021/08/29 05:02:58;;;;;;;3.70;3.07;;;10.60;99.90;;;;;;5078590;28;20172;-85
2021/08/29 05:05:24;;;;;;;5.47;3.17;;;10.60;99.90;;;;;;5077063;28;20178;-85
2021/08/29 05:07:49;;;;;;;5.87;3.40;;;10.60;99.90;;;;;;5077063;28;20243;-83
2021/08/29 08:33:49;;;;;;;9.77;7.17;;;12.80;99.90;;;;;;5135842;27;20748;-89
2021/08/29 08:36:15;;;;;;;7.20;5.07;;;12.90;99.90;;;;;;5117810;28;20251;-89
2021/08/29 08:38:41;;;;;;;5.93;3.80;;;13.00;99.90;;;;;;5125561;28;20202;-90
2021/08/29 08:41:07;;;;;;;4.07;3.07;;;13.10;99.90;;;;;;5134771;28;20179;-90
2021/08/29 08:43:32;;;;;;;3.53;2.50;;;13.10;99.90;;;;;;5135031;28;20607;-86
2021/08/29 08:45:59;;;;;;;3.43;2.33;;;13.10;99.90;;;;;;5136509;28;20175;-86
2021/08/29 08:48:26;;;;;;;2.67;2.27;;;13.20;99.90;;;;;;5139208;28;20202;-87
2021/08/29 08:50:53;;;;;;;2.40;2.20;;;13.20;99.90;;;;;;5137437;28;20201;-88
2021/08/29 08:53:22;;;;;;;2.63;2.37;;;13.30;99.90;;;;;;5138167;28;20206;-88
2021/08/29 08:55:50;;;;;;;2.17;1.97;;;13.30;99.90;;;;;;5138693;28;20175;-88
2021/08/29 08:58:17;;;;;;;2.20;2.00;;;13.30;99.90;;;;;;5136171;28;20199;-88
2021/08/29 09:00:49;;;;;;;1.80;1.60;;;13.30;99.90;;;;;;5138200;28;20176;-88
2021/08/29 09:03:15;;;;;;;2.90;2.07;;;13.20;99.90;;;;;;5149383;27;20163;-89
2021/08/29 09:05:41;;;;;;;1.83;1.30;;;13.10;99.90;;;;;;5156798;27;20163;-86
2021/08/29 09:08:07;;;;;;;4.20;1.50;;;13.10;99.90;;;;;;5147737;27;20226;-88
2021/08/29 09:10:33;;;;;;;2.13;1.90;;;13.00;99.90;;;;;;5134108;28;20668;-89
2021/08/29 09:13:04;;;;;;;1.70;1.60;;;13.10;99.90;;;;;;5135148;27;20198;-88
2021/08/29 09:15:31;;;;;;;1.93;1.60;;;13.10;99.90;;;;;;5134215;28;20259;-88
2021/08/29 09:17:57;;;;;;;1.90;1.60;;;13.10;99.90;;;;;;5133912;28;20240;-88
2021/08/29 09:20:24;;;;;;;2.00;1.87;;;13.20;99.90;;;;;;5134984;27;20581;-88
2021/08/29 09:22:57;;;;;;;1.60;1.47;;;13.30;99.90;;;;;;5133916;28;20179;-88
2021/08/29 09:25:25;;;;;;;1.43;1.20;;;13.30;99.90;;;;;;5134657;27;20175;-88
2021/08/29 09:27:53;;;;;;;1.23;1.13;;;13.30;99.90;;;;;;5134459;27;20194;-88
2021/08/29 09:30:21;;;;;;;1.53;1.27;;;13.40;99.90;;;;;;5133108;28;20187;-88
2021/08/29 09:33:05;;;;;;;1.77;1.30;;;13.40;99.90;;;;;;5133433;28;20218;-88
2021/08/29 09:35:34;;;;;;;1.27;1.13;;;13.40;99.90;;;;;;5134015;28;20316;-88
2021/08/29 09:38:01;;;;;;;1.40;1.30;;;13.40;99.90;;;;;;5133002;28;20199;-88
2021/08/29 09:40:32;;;;;;;1.40;1.30;;;13.40;99.90;;;;;;5134800;27;20254;-88
2021/08/29 09:43:00;;;;;;;1.63;1.53;;;13.30;99.90;;;;;;5132449;28;20208;-88
2021/08/29 09:45:31;;;;;;;1.93;1.23;;;13.30;99.90;;;;;;5119629;28;20184;-88
2021/08/29 09:48:00;;;;;;;1.33;1.10;;;13.20;99.90;;;;;;5122671;28;20221;-89
2021/08/29 09:50:45;;;;;;;1.40;1.20;;;13.10;99.90;;;;;;5131252;28;20190;-88
2021/08/29 09:53:13;;;;;;;1.47;1.37;;;13.00;99.90;;;;;;5119067;28;20195;-87
2021/08/29 09:55:44;;;;;;;1.93;1.50;;;13.00;99.90;;;;;;5120115;28;20270;-86
2021/08/29 09:58:20;;;;;;;1.37;1.27;;;13.00;99.90;;;;;;5118576;28;20223;-88
2021/08/29 10:01:09;;;;;;;1.20;1.10;;;13.10;99.90;;;;;;5118511;28;20179;-88
2021/08/29 10:03:38;;;;;;;6.40;1.70;;;13.20;99.90;;;;;;5118554;28;20164;-89
2021/08/29 10:06:15;;;;;;;3.23;1.30;;;13.30;99.90;;;;;;5119058;28;20178;-88
2021/08/29 10:08:43;;;;;;;1.53;1.37;;;13.40;99.90;;;;;;5119460;28;20214;-88
2021/08/29 10:11:10;;;;;;;1.10;1.00;;;13.50;99.90;;;;;;5119744;28;20179;-88
2021/08/29 10:13:37;;;;;;;1.27;1.17;;;13.50;99.90;;;;;;5118994;28;20199;-87
2021/08/29 10:16:05;;;;;;;2.27;1.20;;;13.60;99.90;;;;;;5120451;28;20509;-88
2021/08/29 10:18:34;;;;;;;1.20;1.10;;;13.60;99.90;;;;;;5121879;28;20191;-88
2021/08/29 10:21:01;;;;;;;2.53;1.53;;;13.70;99.90;;;;;;5129252;28;20183;-87
2021/08/29 10:23:28;;;;;;;2.20;1.50;;;13.70;99.90;;;;;;5118782;28;20221;-87
2021/08/29 10:25:56;;;;;;;2.17;1.40;;;13.80;99.90;;;;;;5118740;28;20176;-88
2021/08/29 10:28:25;;;;;;;3.37;2.67;;;13.80;99.90;;;;;;5117680;28;20684;-88
2021/08/29 10:30:55;;;;;;;2.23;2.03;;;13.80;99.90;;;;;;5117885;28;20644;-88
2021/08/29 10:33:22;;;;;;;1.47;1.37;;;13.80;99.90;;;;;;5117373;28;20264;-89
2021/08/29 10:35:50;;;;;;;1.17;1.07;;;13.80;99.90;;;;;;5117618;28;20180;-89
2021/08/29 10:38:17;;;;;;;1.40;1.20;;;13.90;99.90;;;;;;5118442;28;20198;-89
2021/08/29 10:40:49;;;;;;;1.20;1.10;;;14.00;99.90;;;;;;5117275;28;20214;-88
2021/08/29 10:43:15;;;;;;;1.30;1.20;;;14.00;99.90;;;;;;5117010;28;20596;-87
2021/08/29 10:45:42;;;;;;;1.50;1.40;;;14.00;99.90;;;;;;5118788;28;20180;-88
2021/08/29 10:48:09;;;;;;;1.70;1.60;;;14.00;99.90;;;;;;5118784;28;20222;-88
2021/08/29 10:50:36;;;;;;;1.10;1.00;;;13.90;99.90;;;;;;5120064;28;20211;-88
2021/08/29 10:53:21;;;;;;;1.60;1.40;;;13.80;99.90;;;;;;5119363;28;20600;-87
2021/08/29 10:55:47;;;;;;;1.27;1.17;;;13.70;99.90;;;;;;5117656;28;20534;-87
2021/08/29 10:58:20;;;;;;;1.53;1.30;;;13.70;99.90;;;;;;5117628;28;20252;-87
2021/08/29 11:00:46;;;;;;;1.43;1.23;;;13.80;99.90;;;;;;5118746;28;20163;-87
2021/08/29 11:03:28;;;;;;;2.10;1.50;;;13.80;99.90;;;;;;5118783;28;20190;-89
2021/08/29 11:05:54;;;;;;;1.70;1.30;;;13.80;99.90;;;;;;5118320;28;20179;-87
2021/08/29 11:08:24;;;;;;;1.60;1.30;;;13.80;99.90;;;;;;5118845;28;20729;-87
2021/08/29 11:10:50;;;;;;;3.93;2.40;;;13.90;99.90;;;;;;5117877;28;20225;-88
2021/08/29 11:13:28;;;;;;;1.53;1.40;;;14.10;99.90;;;;;;5117883;28;20210;-88
2021/08/29 11:16:12;;;;;;;1.23;1.13;;;14.10;99.90;;;;;;5118523;28;20176;-88
2021/08/29 11:19:00;;;;;;;1.07;0.90;;;14.20;99.90;;;;;;5118879;28;20214;-88
2021/08/29 11:21:45;;;;;;;3.33;1.90;;;14.30;99.90;;;;;;5118804;28;20203;-88
2021/08/29 11:24:11;;;;;;;2.60;1.43;;;15.10;99.90;;;;;;5107142;28;20213;-88
2021/08/29 11:26:44;;;;;;;1.10;1.00;;;15.50;99.90;;;;;;5119470;28;20175;-88
2021/08/29 11:29:41;;;;;;;0.70;0.70;;;15.50;99.90;;;;;;5131950;28;20202;-88
2021/08/29 11:32:11;;;;;;;1.07;0.83;;;15.40;99.90;;;;;;5122970;28;20229;-88
2021/08/29 11:34:36;;;;;;;0.90;0.90;;;15.20;99.90;;;;;;5136718;28;20179;-88
2021/08/29 11:37:24;;;;;;;0.70;0.70;;;15.00;99.90;;;;;;5136065;28;20198;-88
2021/08/29 11:40:00;;;;;;;1.20;1.10;;;14.80;99.90;;;;;;5134519;28;20256;-88
2021/08/29 11:42:27;;;;;;;1.20;1.10;;;14.70;99.90;;;;;;5119307;28;20162;-87
2021/08/29 11:44:54;;;;;;;0.80;0.80;;;14.80;99.90;;;;;;5117997;28;20179;-88
2021/08/29 11:47:22;;;;;;;1.00;0.90;;;14.80;99.90;;;;;;5119288;28;20209;-89
2021/08/29 11:50:00;;;;;;;1.07;0.97;;;14.70;99.90;;;;;;5119067;28;20274;-89
2021/08/29 11:52:29;;;;;;;3.63;1.10;;;14.70;99.90;;;;;;5121675;28;20278;-89
2021/08/29 11:55:14;;;;;;;3.03;0.90;;;14.80;99.90;;;;;;5128206;28;20175;-89
2021/08/29 11:57:51;;;;;;;1.03;0.90;;;15.20;99.90;;;;;;5137024;28;20242;-89
2021/08/29 12:00:20;;;;;;;1.03;0.80;;;15.40;99.90;;;;;;5139896;28;20237;-89
2021/08/29 12:02:46;;;;;;;0.77;0.77;;;15.40;99.90;;;;;;5113562;28;20180;-88
2021/08/29 12:05:14;;;;;;;0.80;0.67;;;15.30;99.90;;;;;;5099214;28;20180;-87
2021/08/29 12:08:10;;;;;;;0.70;0.70;;;15.20;99.90;;;;;;5099077;28;20214;-87
2021/08/29 12:10:37;;;;;;;1.10;1.00;;;15.10;99.90;;;;;;5098468;28;20180;-87
2021/08/29 12:13:04;;;;;;;0.90;0.90;;;15.00;99.90;;;;;;5098058;28;20222;-87
2021/08/29 12:15:30;;;;;;;0.77;0.60;;;14.90;99.90;;;;;;5099049;28;20184;-87
2021/08/29 12:18:01;;;;;;;0.80;0.77;;;14.70;99.90;;;;;;5101035;28;20192;-87
2021/08/29 12:20:28;;;;;;;0.87;0.80;;;14.70;99.90;;;;;;5102902;28;20184;-84
2021/08/29 12:23:03;;;;;;;0.77;0.77;;;14.60;99.90;;;;;;5102105;28;20171;-88
2021/08/29 12:25:29;;;;;;;0.60;0.60;;;14.50;99.90;;;;;;5107137;28;20243;-87
2021/08/29 12:28:09;;;;;;;1.47;0.70;;;14.50;99.90;;;;;;5099472;28;20222;-87
2021/08/29 12:30:36;;;;;;;1.00;0.87;;;14.50;99.90;;;;;;5103641;28;20176;-88
2021/08/29 12:33:13;;;;;;;2.67;1.53;;;14.40;99.90;;;;;;5100822;28;20204;-88
2021/08/29 12:35:41;;;;;;;2.60;1.30;;;14.40;99.90;;;;;;5102067;28;20366;-87
2021/08/29 12:38:18;;;;;;;1.03;0.90;;;14.30;99.90;;;;;;5102747;28;20192;-85
2021/08/29 12:40:43;;;;;;;2.07;0.90;;;14.30;99.90;;;;;;5103555;28;20172;-86
2021/08/29 12:43:10;;;;;;;1.33;0.90;;;14.20;99.90;;;;;;5101405;28;20212;-87
2021/08/29 12:45:36;;;;;;;6.83;1.53;;;14.20;99.90;;;;;;5100021;28;20176;-90
2021/08/29 12:48:02;;;;;;;1.80;1.60;;;14.20;99.90;;;;;;5099620;28;20692;-85
2021/08/29 12:50:29;;;;;;;1.30;0.90;;;14.10;99.90;;;;;;5100051;28;20180;-82
2021/08/29 12:53:05;;;;;;;1.27;1.00;;;14.10;99.90;;;;;;5103535;28;20686;-86
2021/08/29 12:55:31;;;;;;;1.77;1.00;;;14.10;99.90;;;;;;5102152;28;20171;-84
2021/08/29 12:58:02;;;;;;;1.57;0.87;;;14.10;99.90;;;;;;5099744;28;20666;-87
2021/08/29 13:00:43;;;;;;;0.50;0.50;;;14.10;99.90;;;;;;5101839;28;20193;-86
2021/08/29 13:03:09;;;;;;;1.07;0.70;;;14.00;99.90;;;;;;5101611;28;20172;-87
2021/08/29 13:05:40;;;;;;;3.90;0.90;;;13.90;99.90;;;;;;5102575;28;20191;-87
2021/08/29 13:08:08;;;;;;;0.50;0.50;;;13.90;99.90;;;;;;5098441;28;20208;-87
2021/08/29 13:10:34;;;;;;;0.50;0.50;;;13.80;99.90;;;;;;5099935;28;20200;-87
2021/08/29 13:13:11;;;;;;;0.60;0.60;;;13.80;99.90;;;;;;5099827;28;20208;-87
2021/08/29 13:15:39;;;;;;;3.10;0.80;;;13.90;99.90;;;;;;5100170;28;20187;-88
2021/08/29 13:18:06;;;;;;;0.60;0.60;;;14.00;99.90;;;;;;5099291;28;20219;-88
2021/08/29 13:20:41;;;;;;;0.83;0.60;;;14.00;99.90;;;;;;5102870;28;20196;-88
2021/08/29 13:23:33;;;;;;;1.33;0.87;;;14.10;99.90;;;;;;5102518;28;20191;-88
2021/08/29 13:26:01;;;;;;;0.70;0.70;;;14.10;99.90;;;;;;5100848;28;20183;-88
2021/08/29 13:28:28;;;;;;;2.00;0.80;;;14.20;99.90;;;;;;5105008;28;20211;-88
2021/08/29 13:31:05;;;;;;;1.60;1.00;;;14.30;99.90;;;;;;5106827;28;20313;-88
2021/08/29 13:33:32;;;;;;;1.20;1.10;;;14.30;99.90;;;;;;5106778;28;20270;-85
2021/08/29 13:36:06;;;;;;;0.70;0.60;;;14.30;99.90;;;;;;5105495;28;20172;-90
2021/08/29 13:38:33;;;;;;;0.90;0.80;;;14.30;99.90;;;;;;5108493;28;20191;-85
2021/08/29 13:41:04;;;;;;;0.90;0.73;;;14.20;99.90;;;;;;5105928;28;20228;-87
2021/08/29 13:43:36;;;;;;;1.43;0.90;;;14.10;99.90;;;;;;5106034;28;20210;-87
2021/08/29 13:46:04;;;;;;;0.60;0.60;;;14.00;99.90;;;;;;5109831;28;20161;-88
2021/08/29 13:48:30;;;;;;;0.93;0.80;;;14.00;99.90;;;;;;5105861;28;20605;-89
2021/08/29 13:51:00;;;;;;;0.93;0.60;;;14.00;99.90;;;;;;5105975;28;20227;-84
2021/08/29 13:53:30;;;;;;;0.87;0.73;;;13.90;99.90;;;;;;5107539;28;20188;-87
2021/08/29 13:55:57;;;;;;;0.70;0.70;;;13.90;99.90;;;;;;5109784;28;20543;-87
2021/08/29 13:58:23;;;;;;;1.97;1.50;;;14.00;99.90;;;;;;5107357;28;20184;-88
2021/08/29 14:00:50;;;;;;;1.00;0.90;;;14.00;99.90;;;;;;5110510;28;20184;-89
2021/08/29 14:03:15;;;;;;;3.57;2.33;;;14.00;99.90;;;;;;5113679;28;20263;-84
2021/08/29 14:05:42;;;;;;;1.60;1.10;;;14.10;99.90;;;;;;5116890;28;20202;-87
2021/08/29 14:08:08;;;;;;;3.90;1.60;;;14.10;99.90;;;;;;5108989;28;20230;-86
2021/08/29 14:10:34;;;;;;;2.13;1.70;;;14.00;99.90;;;;;;5116750;28;20179;-88
2021/08/29 14:13:00;;;;;;;1.20;1.10;;;14.00;99.90;;;;;;5102535;28;20208;-87
2021/08/29 14:15:27;;;;;;;0.70;0.70;;;14.00;99.90;;;;;;5105875;28;20185;-87
2021/08/29 14:17:53;;;;;;;1.17;1.07;;;14.00;99.90;;;;;;5104802;28;20207;-87
2021/08/29 14:20:18;;;;;;;1.87;1.10;;;14.00;99.90;;;;;;5111077;28;20171;-87
2021/08/29 14:22:45;;;;;;;0.93;0.90;;;14.00;99.90;;;;;;5130780;28;20179;-87
2021/08/29 14:25:15;;;;;;;0.90;0.90;;;14.00;99.90;;;;;;5111570;28;20188;-87
2021/08/29 14:27:44;;;;;;;3.00;1.50;;;14.10;99.90;;;;;;5124854;28;20222;-86
2021/08/29 14:30:10;;;;;;;2.00;1.60;;;14.10;99.90;;;;;;5123714;28;20186;-86
2021/08/29 14:32:36;;;;;;;1.43;1.33;;;14.10;99.90;;;;;;5122712;28;20204;-87
2021/08/29 14:35:02;;;;;;;1.83;1.63;;;14.10;99.90;;;;;;5128303;28;20167;-85
2021/08/29 14:37:28;;;;;;;2.67;1.17;;;14.00;99.90;;;;;;5111509;28;20219;-85
2021/08/29 14:39:54;;;;;;;1.60;1.23;;;14.00;99.90;;;;;;5115601;28;20549;-86
2021/08/29 14:42:21;;;;;;;1.13;1.00;;;14.00;99.90;;;;;;5122428;28;20258;-86
2021/08/29 14:44:48;;;;;;;1.37;0.90;;;14.00;99.90;;;;;;5118213;28;20217;-84
2021/08/29 14:47:14;;;;;;;1.67;1.20;;;13.90;99.90;;;;;;5129681;28;20183;-82
2021/08/29 14:49:39;;;;;;;3.07;2.60;;;13.80;99.90;;;;;;5140364;28;20226;-85
2021/08/29 14:52:05;;;;;;;1.83;1.10;;;13.70;99.90;;;;;;5130254;28;20222;-84
2021/08/29 14:54:31;;;;;;;2.30;1.77;;;13.70;99.90;;;;;;5107972;28;20582;-87
2021/08/29 14:56:56;;;;;;;3.10;2.03;;;13.60;99.90;;;;;;5103174;28;20180;-87
2021/08/29 14:59:22;;;;;;;1.53;1.40;;;13.50;99.90;;;;;;5105404;28;20204;-86
2021/08/29 15:01:48;;;;;;;6.83;3.70;;;13.60;99.90;;;;;;5115692;28;20244;-86
2021/08/29 15:04:13;;;;;;;1.80;1.70;;;13.50;99.90;;;;;;5117581;28;20176;-86
2021/08/29 15:06:39;;;;;;;1.13;1.03;;;13.60;99.90;;;;;;5114154;28;20412;-87
2021/08/29 15:09:05;;;;;;;2.87;1.40;;;13.60;99.90;;;;;;5113960;28;20207;-87
2021/08/29 15:11:30;;;;;;;1.43;1.33;;;13.60;99.90;;;;;;5102484;28;20172;-87
2021/08/29 15:13:56;;;;;;;1.83;1.60;;;13.60;99.90;;;;;;5102801;28;20213;-87
2021/08/29 15:16:22;;;;;;;2.40;1.70;;;;;;;;;;5105427;28;20184;-88
2021/08/29 15:18:51;;;;;;;1.60;1.40;;;13.50;99.90;;;;;;5104075;28;20192;-89
2021/08/29 15:21:16;;;;;;;4.60;3.60;;;13.40;99.90;;;;;;5104687;28;20172;-89
2021/08/29 15:23:42;;;;;;;3.90;3.07;;;13.40;99.90;;;;;;5110122;28;20178;-89
2021/08/29 15:26:08;;;;;;;2.53;2.20;;;13.40;99.90;;;;;;5106586;28;20178;-88
2021/08/29 15:28:34;;;;;;;3.13;2.10;;;13.40;99.90;;;;;;5117681;28;20364;-89
2021/08/29 15:31:00;;;;;;;1.57;1.43;;;13.30;99.90;;;;;;5104894;28;20208;-88
2021/08/29 15:33:29;;;;;;;1.60;1.50;;;13.30;99.90;;;;;;5101834;28;20215;-88
2021/08/29 15:35:59;;;;;;;1.50;1.40;;;13.40;99.90;;;;;;5122471;28;20235;-88
2021/08/29 15:38:25;;;;;;;1.70;1.50;;;13.30;99.90;;;;;;5126425;28;20221;-88
2021/08/29 15:40:50;;;;;;;1.57;1.47;;;13.40;99.90;;;;;;5114905;28;20642;-88
2021/08/29 15:43:17;;;;;;;1.97;1.77;;;13.40;99.90;;;;;;5110694;28;20175;-88
2021/08/29 15:45:44;;;;;;;4.83;1.20;;;13.40;99.90;;;;;;5122676;28;20175;-88
2021/08/29 15:48:10;;;;;;;1.50;1.20;;;13.40;99.90;;;;;;5110400;28;20233;-88
2021/08/29 15:50:41;;;;;;;1.13;1.03;;;13.40;99.90;;;;;;5145772;27;20202;-87
2021/08/29 15:53:06;;;;;;;1.57;1.37;;;13.50;99.90;;;;;;5130343;27;20187;-86
2021/08/29 15:55:32;;;;;;;1.50;1.40;;;13.30;99.90;;;;;;5126612;28;20192;-88
2021/08/29 15:57:59;;;;;;;1.13;1.03;;;13.30;99.90;;;;;;5127007;28;20191;-89
2021/08/29 16:00:25;;;;;;;1.57;1.37;;;13.30;99.90;;;;;;5114630;28;20175;-89
2021/08/29 16:02:52;;;;;;;4.53;2.13;;;13.30;99.90;;;;;;5107182;28;20187;-89
2021/08/29 16:05:19;;;;;;;1.50;1.40;;;13.30;99.90;;;;;;5111818;28;20235;-89
2021/08/29 16:07:46;;;;;;;3.60;1.90;;;13.30;99.90;;;;;;5125402;28;20199;-89
2021/08/29 16:10:12;;;;;;;2.20;2.00;;;13.30;99.90;;;;;;5124619;28;20211;-89
2021/08/29 16:12:38;;;;;;;11.13;8.93;;;13.30;99.90;;;;;;5116195;28;20565;-89
2021/08/29 16:15:05;;;;;;;3.83;3.53;;;13.30;99.90;;;;;;5122646;28;20580;-89
2021/08/29 16:17:31;;;;;;;3.27;2.77;;;13.30;99.90;;;;;;5116975;28;20207;-89
2021/08/29 16:19:56;;;;;;;2.27;1.70;;;13.30;99.90;;;;;;5103799;28;20622;-89